sensor_id;sensor_type;location;lat;lon;timestamp;P1;durP1;ratioP1;P2;durP2;ratioP2
25327;SDS011;13279;51.300;12.394;2024-03-06T00:01:04;31.17;;;12.77;;
25327;SDS011;13279;51.300;12.394;2024-03-06T00:03:32;23.80;;;12.37;;
25327;SDS011;13279;51.300;12.394;2024-03-06T00:05:59;29.87;;;13.17;;
25327;SDS011;13279;51.300;12.394;2024-03-06T00:08:27;25.43;;;12.77;;
25327;SDS011;13279;51.300;12.394;2024-03-06T00:10:54;26.67;;;12.47;;
25327;SDS011;13279;51.300;12.394;2024-03-06T00:13:23;28.00;;;13.20;;
25327;SDS011;13279;51.300;12.394;2024-03-06T00:15:50;29.47;;;13.80;;
25327;SDS011;13279;51.300;12.394;2024-03-06T00:18:18;28.53;;;14.47;;
25327;SDS011;13279;51.300;12.394;2024-03-06T00:20:45;22.60;;;13.07;;
25327;SDS011;13279;51.300;12.394;2024-03-06T00:23:13;22.70;;;12.07;;
25327;SDS011;13279;51.300;12.394;2024-03-06T00:25:40;26.77;;;12.60;;
25327;SDS011;13279;51.300;12.394;2024-03-06T00:28:07;29.70;;;13.53;;
25327;SDS011;13279;51.300;12.394;2024-03-06T00:30:36;25.33;;;13.00;;
25327;SDS011;13279;51.300;12.394;2024-03-06T00:33:04;28.23;;;13.23;;
25327;SDS011;13279;51.300;12.394;2024-03-06T00:35:31;27.87;;;12.53;;
25327;SDS011;13279;51.300;12.394;2024-03-06T00:37:58;26.40;;;13.30;;
25327;SDS011;13279;51.300;12.394;2024-03-06T00:40:27;27.30;;;12.90;;
25327;SDS011;13279;51.300;12.394;2024-03-06T00:42:56;23.07;;;12.33;;
25327;SDS011;13279;51.300;12.394;2024-03-06T00:45:23;24.50;;;12.53;;
25327;SDS011;13279;51.300;12.394;2024-03-06T00:47:52;27.37;;;13.37;;
25327;SDS011;13279;51.300;12.394;2024-03-06T00:50:19;32.83;;;13.70;;
25327;SDS011;13279;51.300;12.394;2024-03-06T00:52:48;24.87;;;12.10;;
25327;SDS011;13279;51.300;12.394;2024-03-06T00:55:15;24.80;;;12.53;;
25327;SDS011;13279;51.300;12.394;2024-03-06T00:57:43;26.70;;;13.27;;
25327;SDS011;13279;51.300;12.394;2024-03-06T01:00:10;26.73;;;14.20;;
25327;SDS011;13279;51.300;12.394;2024-03-06T01:02:40;28.77;;;13.83;;
25327;SDS011;13279;51.300;12.394;2024-03-06T01:05:09;26.40;;;14.13;;
25327;SDS011;13279;51.300;12.394;2024-03-06T01:07:37;27.13;;;12.60;;
25327;SDS011;13279;51.300;12.394;2024-03-06T01:10:05;27.20;;;13.83;;
25327;SDS011;13279;51.300;12.394;2024-03-06T01:12:33;30.90;;;14.10;;
25327;SDS011;13279;51.300;12.394;2024-03-06T01:15:01;28.57;;;14.10;;
25327;SDS011;13279;51.300;12.394;2024-03-06T01:17:29;25.43;;;13.80;;
25327;SDS011;13279;51.300;12.394;2024-03-06T01:19:56;29.70;;;13.60;;
25327;SDS011;13279;51.300;12.394;2024-03-06T01:22:26;29.73;;;14.07;;
25327;SDS011;13279;51.300;12.394;2024-03-06T01:24:53;26.13;;;14.10;;
25327;SDS011;13279;51.300;12.394;2024-03-06T01:27:21;32.87;;;13.67;;
25327;SDS011;13279;51.300;12.394;2024-03-06T01:29:48;32.73;;;14.40;;
25327;SDS011;13279;51.300;12.394;2024-03-06T01:32:16;29.60;;;14.00;;
25327;SDS011;13279;51.300;12.394;2024-03-06T01:34:43;30.50;;;14.43;;
25327;SDS011;13279;51.300;12.394;2024-03-06T01:37:11;23.37;;;13.33;;
25327;SDS011;13279;51.300;12.394;2024-03-06T01:39:39;30.97;;;12.43;;
25327;SDS011;13279;51.300;12.394;2024-03-06T01:42:07;27.27;;;13.73;;
25327;SDS011;13279;51.300;12.394;2024-03-06T01:44:34;27.43;;;12.90;;
25327;SDS011;13279;51.300;12.394;2024-03-06T01:47:02;25.83;;;13.37;;
25327;SDS011;13279;51.300;12.394;2024-03-06T01:49:29;25.57;;;13.87;;
25327;SDS011;13279;51.300;12.394;2024-03-06T01:51:58;28.77;;;13.13;;
25327;SDS011;13279;51.300;12.394;2024-03-06T01:54:27;23.47;;;12.83;;
25327;SDS011;13279;51.300;12.394;2024-03-06T01:56:57;29.50;;;13.70;;
25327;SDS011;13279;51.300;12.394;2024-03-06T01:59:25;38.30;;;14.20;;
25327;SDS011;13279;51.300;12.394;2024-03-06T02:01:53;33.10;;;14.90;;
25327;SDS011;13279;51.300;12.394;2024-03-06T02:04:21;27.20;;;14.00;;
25327;SDS011;13279;51.300;12.394;2024-03-06T02:06:51;32.70;;;15.17;;
25327;SDS011;13279;51.300;12.394;2024-03-06T02:09:21;29.77;;;13.80;;
25327;SDS011;13279;51.300;12.394;2024-03-06T02:11:50;34.30;;;15.60;;
25327;SDS011;13279;51.300;12.394;2024-03-06T02:14:19;29.57;;;14.97;;
25327;SDS011;13279;51.300;12.394;2024-03-06T02:16:46;32.70;;;15.07;;
25327;SDS011;13279;51.300;12.394;2024-03-06T02:19:13;26.37;;;14.23;;
25327;SDS011;13279;51.300;12.394;2024-03-06T02:21:42;28.07;;;13.17;;
25327;SDS011;13279;51.300;12.394;2024-03-06T02:24:11;29.80;;;14.77;;
25327;SDS011;13279;51.300;12.394;2024-03-06T02:26:39;30.67;;;15.07;;
25327;SDS011;13279;51.300;12.394;2024-03-06T02:29:07;30.97;;;15.20;;
25327;SDS011;13279;51.300;12.394;2024-03-06T02:31:35;30.90;;;14.93;;
25327;SDS011;13279;51.300;12.394;2024-03-06T02:34:05;26.23;;;14.67;;
25327;SDS011;13279;51.300;12.394;2024-03-06T02:36:32;31.10;;;14.73;;
25327;SDS011;13279;51.300;12.394;2024-03-06T02:39:01;29.70;;;14.80;;
25327;SDS011;13279;51.300;12.394;2024-03-06T02:41:34;32.93;;;16.33;;
25327;SDS011;13279;51.300;12.394;2024-03-06T02:44:02;27.93;;;14.63;;
25327;SDS011;13279;51.300;12.394;2024-03-06T02:46:30;30.87;;;15.93;;
25327;SDS011;13279;51.300;12.394;2024-03-06T02:48:57;36.03;;;16.03;;
25327;SDS011;13279;51.300;12.394;2024-03-06T02:51:24;34.10;;;15.40;;
25327;SDS011;13279;51.300;12.394;2024-03-06T02:53:52;30.53;;;15.60;;
25327;SDS011;13279;51.300;12.394;2024-03-06T02:56:21;32.33;;;16.33;;
25327;SDS011;13279;51.300;12.394;2024-03-06T02:58:48;35.53;;;16.77;;
25327;SDS011;13279;51.300;12.394;2024-03-06T03:01:16;32.10;;;15.40;;
25327;SDS011;13279;51.300;12.394;2024-03-06T03:03:43;36.67;;;17.10;;
25327;SDS011;13279;51.300;12.394;2024-03-06T03:06:12;35.63;;;17.57;;
25327;SDS011;13279;51.300;12.394;2024-03-06T03:08:40;42.50;;;16.67;;
25327;SDS011;13279;51.300;12.394;2024-03-06T03:11:08;33.63;;;16.27;;
25327;SDS011;13279;51.300;12.394;2024-03-06T03:13:36;31.37;;;16.83;;
25327;SDS011;13279;51.300;12.394;2024-03-06T03:16:05;32.33;;;15.13;;
25327;SDS011;13279;51.300;12.394;2024-03-06T03:18:32;28.53;;;15.80;;
25327;SDS011;13279;51.300;12.394;2024-03-06T03:21:00;35.63;;;17.30;;
25327;SDS011;13279;51.300;12.394;2024-03-06T03:23:27;40.97;;;15.97;;
25327;SDS011;13279;51.300;12.394;2024-03-06T03:25:55;31.97;;;16.03;;
25327;SDS011;13279;51.300;12.394;2024-03-06T03:28:22;36.93;;;18.33;;
25327;SDS011;13279;51.300;12.394;2024-03-06T03:30:51;35.80;;;17.17;;
25327;SDS011;13279;51.300;12.394;2024-03-06T03:33:18;41.77;;;16.27;;
25327;SDS011;13279;51.300;12.394;2024-03-06T03:35:46;32.10;;;15.97;;
25327;SDS011;13279;51.300;12.394;2024-03-06T03:38:13;40.10;;;18.50;;
25327;SDS011;13279;51.300;12.394;2024-03-06T03:40:41;43.07;;;18.07;;
25327;SDS011;13279;51.300;12.394;2024-03-06T03:43:09;36.47;;;18.20;;
25327;SDS011;13279;51.300;12.394;2024-03-06T03:45:36;40.93;;;18.90;;
25327;SDS011;13279;51.300;12.394;2024-03-06T03:48:05;42.77;;;19.00;;
25327;SDS011;13279;51.300;12.394;2024-03-06T03:50:33;42.97;;;17.83;;
25327;SDS011;13279;51.300;12.394;2024-03-06T03:53:01;41.63;;;19.40;;
25327;SDS011;13279;51.300;12.394;2024-03-06T03:55:29;35.27;;;18.17;;
25327;SDS011;13279;51.300;12.394;2024-03-06T03:57:56;44.37;;;18.87;;
25327;SDS011;13279;51.300;12.394;2024-03-06T04:00:24;37.10;;;18.23;;
25327;SDS011;13279;51.300;12.394;2024-03-06T04:02:51;51.50;;;19.87;;
25327;SDS011;13279;51.300;12.394;2024-03-06T04:05:20;37.33;;;18.93;;
25327;SDS011;13279;51.300;12.394;2024-03-06T04:07:48;40.37;;;17.73;;
25327;SDS011;13279;51.300;12.394;2024-03-06T04:10:16;40.37;;;18.83;;
25327;SDS011;13279;51.300;12.394;2024-03-06T04:12:43;41.47;;;19.47;;
25327;SDS011;13279;51.300;12.394;2024-03-06T04:15:11;46.27;;;18.57;;
25327;SDS011;13279;51.300;12.394;2024-03-06T04:17:38;41.20;;;19.67;;
25327;SDS011;13279;51.300;12.394;2024-03-06T04:20:06;41.07;;;18.50;;
25327;SDS011;13279;51.300;12.394;2024-03-06T04:22:38;41.80;;;18.33;;
25327;SDS011;13279;51.300;12.394;2024-03-06T04:25:07;40.07;;;19.27;;
25327;SDS011;13279;51.300;12.394;2024-03-06T04:27:34;43.70;;;19.60;;
25327;SDS011;13279;51.300;12.394;2024-03-06T04:30:02;38.17;;;19.47;;
25327;SDS011;13279;51.300;12.394;2024-03-06T04:32:31;40.20;;;20.07;;
25327;SDS011;13279;51.300;12.394;2024-03-06T04:34:58;39.23;;;19.97;;
25327;SDS011;13279;51.300;12.394;2024-03-06T04:37:25;41.80;;;18.47;;
25327;SDS011;13279;51.300;12.394;2024-03-06T04:39:56;49.93;;;21.03;;
25327;SDS011;13279;51.300;12.394;2024-03-06T04:42:23;41.43;;;19.33;;
25327;SDS011;13279;51.300;12.394;2024-03-06T04:44:50;42.23;;;19.60;;
25327;SDS011;13279;51.300;12.394;2024-03-06T04:47:18;41.43;;;20.17;;
25327;SDS011;13279;51.300;12.394;2024-03-06T04:49:46;46.93;;;21.00;;
25327;SDS011;13279;51.300;12.394;2024-03-06T04:52:15;48.40;;;21.37;;
25327;SDS011;13279;51.300;12.394;2024-03-06T04:54:42;48.27;;;21.97;;
25327;SDS011;13279;51.300;12.394;2024-03-06T04:57:11;46.20;;;20.93;;
25327;SDS011;13279;51.300;12.394;2024-03-06T04:59:39;43.87;;;20.17;;
25327;SDS011;13279;51.300;12.394;2024-03-06T05:02:07;44.53;;;21.03;;
25327;SDS011;13279;51.300;12.394;2024-03-06T05:04:35;44.20;;;21.17;;
25327;SDS011;13279;51.300;12.394;2024-03-06T05:07:03;43.23;;;19.37;;
25327;SDS011;13279;51.300;12.394;2024-03-06T05:09:30;42.87;;;20.80;;
25327;SDS011;13279;51.300;12.394;2024-03-06T05:11:58;48.17;;;22.57;;
25327;SDS011;13279;51.300;12.394;2024-03-06T05:14:27;55.00;;;21.17;;
25327;SDS011;13279;51.300;12.394;2024-03-06T05:16:54;44.93;;;20.33;;
25327;SDS011;13279;51.300;12.394;2024-03-06T05:19:22;49.87;;;21.50;;
25327;SDS011;13279;51.300;12.394;2024-03-06T05:21:50;45.47;;;21.73;;
25327;SDS011;13279;51.300;12.394;2024-03-06T05:24:18;45.70;;;21.83;;
25327;SDS011;13279;51.300;12.394;2024-03-06T05:26:45;55.17;;;22.57;;
25327;SDS011;13279;51.300;12.394;2024-03-06T05:29:13;44.33;;;20.97;;
25327;SDS011;13279;51.300;12.394;2024-03-06T05:31:42;43.77;;;21.00;;
25327;SDS011;13279;51.300;12.394;2024-03-06T05:34:10;49.07;;;21.17;;
25327;SDS011;13279;51.300;12.394;2024-03-06T05:36:37;51.20;;;22.77;;
25327;SDS011;13279;51.300;12.394;2024-03-06T05:39:04;48.03;;;21.03;;
25327;SDS011;13279;51.300;12.394;2024-03-06T05:41:32;44.30;;;20.17;;
25327;SDS011;13279;51.300;12.394;2024-03-06T05:43:59;52.83;;;22.67;;
25327;SDS011;13279;51.300;12.394;2024-03-06T05:46:27;46.60;;;21.93;;
25327;SDS011;13279;51.300;12.394;2024-03-06T05:48:56;45.83;;;22.43;;
25327;SDS011;13279;51.300;12.394;2024-03-06T05:51:23;44.97;;;21.27;;
25327;SDS011;13279;51.300;12.394;2024-03-06T05:53:51;52.17;;;22.63;;
25327;SDS011;13279;51.300;12.394;2024-03-06T05:56:18;51.50;;;22.03;;
25327;SDS011;13279;51.300;12.394;2024-03-06T05:58:46;52.60;;;22.27;;
25327;SDS011;13279;51.300;12.394;2024-03-06T06:01:14;45.33;;;21.80;;
25327;SDS011;13279;51.300;12.394;2024-03-06T06:03:45;51.80;;;20.80;;
25327;SDS011;13279;51.300;12.394;2024-03-06T06:06:15;54.83;;;22.00;;
25327;SDS011;13279;51.300;12.394;2024-03-06T06:08:44;48.97;;;21.90;;
25327;SDS011;13279;51.300;12.394;2024-03-06T06:11:11;50.03;;;22.53;;
25327;SDS011;13279;51.300;12.394;2024-03-06T06:13:39;52.57;;;24.20;;
25327;SDS011;13279;51.300;12.394;2024-03-06T06:16:07;57.10;;;22.90;;
25327;SDS011;13279;51.300;12.394;2024-03-06T06:18:34;54.67;;;23.37;;
25327;SDS011;13279;51.300;12.394;2024-03-06T06:21:02;53.87;;;22.27;;
25327;SDS011;13279;51.300;12.394;2024-03-06T06:23:34;55.17;;;23.43;;
25327;SDS011;13279;51.300;12.394;2024-03-06T06:26:02;49.83;;;23.00;;
25327;SDS011;13279;51.300;12.394;2024-03-06T06:28:30;49.90;;;23.20;;
25327;SDS011;13279;51.300;12.394;2024-03-06T06:30:57;50.63;;;21.87;;
25327;SDS011;13279;51.300;12.394;2024-03-06T06:33:24;49.93;;;23.20;;
25327;SDS011;13279;51.300;12.394;2024-03-06T06:35:52;52.97;;;22.93;;
25327;SDS011;13279;51.300;12.394;2024-03-06T06:38:19;57.20;;;23.97;;
25327;SDS011;13279;51.300;12.394;2024-03-06T06:40:48;53.20;;;22.60;;
25327;SDS011;13279;51.300;12.394;2024-03-06T06:43:15;49.47;;;22.77;;
25327;SDS011;13279;51.300;12.394;2024-03-06T06:45:43;51.63;;;23.00;;
25327;SDS011;13279;51.300;12.394;2024-03-06T06:48:11;48.20;;;22.83;;
25327;SDS011;13279;51.300;12.394;2024-03-06T06:50:39;50.17;;;22.63;;
25327;SDS011;13279;51.300;12.394;2024-03-06T06:53:06;50.80;;;21.70;;
25327;SDS011;13279;51.300;12.394;2024-03-06T06:55:34;52.37;;;22.30;;
25327;SDS011;13279;51.300;12.394;2024-03-06T06:58:03;54.33;;;21.47;;
25327;SDS011;13279;51.300;12.394;2024-03-06T07:00:30;48.07;;;21.90;;
25327;SDS011;13279;51.300;12.394;2024-03-06T07:02:59;47.63;;;21.63;;
25327;SDS011;13279;51.300;12.394;2024-03-06T07:05:26;51.00;;;22.60;;
25327;SDS011;13279;51.300;12.394;2024-03-06T07:07:54;47.23;;;21.63;;
25327;SDS011;13279;51.300;12.394;2024-03-06T07:10:21;46.20;;;22.03;;
25327;SDS011;13279;51.300;12.394;2024-03-06T07:12:48;41.03;;;21.37;;
25327;SDS011;13279;51.300;12.394;2024-03-06T07:15:17;47.23;;;21.70;;
25327;SDS011;13279;51.300;12.394;2024-03-06T07:17:44;51.57;;;23.30;;
25327;SDS011;13279;51.300;12.394;2024-03-06T07:20:12;46.47;;;21.97;;
25327;SDS011;13279;51.300;12.394;2024-03-06T07:22:39;50.20;;;22.97;;
25327;SDS011;13279;51.300;12.394;2024-03-06T07:25:08;49.33;;;21.63;;
25327;SDS011;13279;51.300;12.394;2024-03-06T07:27:36;52.93;;;23.03;;
25327;SDS011;13279;51.300;12.394;2024-03-06T07:30:05;42.50;;;22.03;;
25327;SDS011;13279;51.300;12.394;2024-03-06T07:32:35;52.50;;;22.43;;
25327;SDS011;13279;51.300;12.394;2024-03-06T07:35:03;52.37;;;22.87;;
25327;SDS011;13279;51.300;12.394;2024-03-06T07:37:31;47.37;;;22.23;;
25327;SDS011;13279;51.300;12.394;2024-03-06T07:39:59;46.50;;;22.57;;
25327;SDS011;13279;51.300;12.394;2024-03-06T07:42:28;51.63;;;23.43;;
25327;SDS011;13279;51.300;12.394;2024-03-06T07:44:58;45.43;;;23.00;;
25327;SDS011;13279;51.300;12.394;2024-03-06T07:47:27;49.47;;;22.57;;
25327;SDS011;13279;51.300;12.394;2024-03-06T07:49:56;53.57;;;22.77;;
25327;SDS011;13279;51.300;12.394;2024-03-06T07:52:23;40.73;;;20.47;;
25327;SDS011;13279;51.300;12.394;2024-03-06T07:54:50;46.23;;;23.23;;
25327;SDS011;13279;51.300;12.394;2024-03-06T07:57:18;54.27;;;23.93;;
25327;SDS011;13279;51.300;12.394;2024-03-06T07:59:47;41.33;;;21.40;;
25327;SDS011;13279;51.300;12.394;2024-03-06T08:02:15;46.47;;;23.47;;
25327;SDS011;13279;51.300;12.394;2024-03-06T08:04:42;46.50;;;21.53;;
25327;SDS011;13279;51.300;12.394;2024-03-06T08:07:11;50.00;;;21.10;;
25327;SDS011;13279;51.300;12.394;2024-03-06T08:09:38;43.43;;;21.80;;
25327;SDS011;13279;51.300;12.394;2024-03-06T08:12:06;47.87;;;22.40;;
25327;SDS011;13279;51.300;12.394;2024-03-06T08:14:33;45.10;;;21.17;;
25327;SDS011;13279;51.300;12.394;2024-03-06T08:17:01;48.97;;;21.27;;
25327;SDS011;13279;51.300;12.394;2024-03-06T08:19:28;41.13;;;20.70;;
25327;SDS011;13279;51.300;12.394;2024-03-06T08:21:55;41.70;;;20.67;;
25327;SDS011;13279;51.300;12.394;2024-03-06T08:24:24;38.27;;;20.00;;
25327;SDS011;13279;51.300;12.394;2024-03-06T08:26:51;38.13;;;20.43;;
25327;SDS011;13279;51.300;12.394;2024-03-06T08:29:19;43.23;;;22.40;;
25327;SDS011;13279;51.300;12.394;2024-03-06T08:31:46;49.67;;;23.07;;
25327;SDS011;13279;51.300;12.394;2024-03-06T08:34:13;46.93;;;21.60;;
25327;SDS011;13279;51.300;12.394;2024-03-06T08:36:41;42.87;;;20.67;;
25327;SDS011;13279;51.300;12.394;2024-03-06T08:39:09;46.23;;;21.77;;
25327;SDS011;13279;51.300;12.394;2024-03-06T08:41:40;36.40;;;19.77;;
25327;SDS011;13279;51.300;12.394;2024-03-06T08:44:08;40.20;;;21.43;;
25327;SDS011;13279;51.300;12.394;2024-03-06T08:46:35;50.80;;;22.07;;
25327;SDS011;13279;51.300;12.394;2024-03-06T08:49:03;51.93;;;21.50;;
25327;SDS011;13279;51.300;12.394;2024-03-06T08:51:30;45.10;;;21.77;;
25327;SDS011;13279;51.300;12.394;2024-03-06T08:53:58;43.17;;;21.97;;
25327;SDS011;13279;51.300;12.394;2024-03-06T08:56:25;44.77;;;22.60;;
25327;SDS011;13279;51.300;12.394;2024-03-06T08:58:54;48.27;;;23.07;;
25327;SDS011;13279;51.300;12.394;2024-03-06T09:01:21;39.83;;;21.93;;
25327;SDS011;13279;51.300;12.394;2024-03-06T09:03:48;48.10;;;22.37;;
25327;SDS011;13279;51.300;12.394;2024-03-06T09:06:16;43.97;;;23.20;;
25327;SDS011;13279;51.300;12.394;2024-03-06T09:08:43;44.07;;;22.83;;
25327;SDS011;13279;51.300;12.394;2024-03-06T09:11:10;39.30;;;21.27;;
25327;SDS011;13279;51.300;12.394;2024-03-06T09:13:37;52.30;;;22.70;;
25327;SDS011;13279;51.300;12.394;2024-03-06T09:16:06;56.60;;;24.23;;
25327;SDS011;13279;51.300;12.394;2024-03-06T09:18:34;42.57;;;22.27;;
25327;SDS011;13279;51.300;12.394;2024-03-06T09:21:01;45.90;;;23.50;;
25327;SDS011;13279;51.300;12.394;2024-03-06T09:23:29;45.87;;;23.47;;
25327;SDS011;13279;51.300;12.394;2024-03-06T09:25:58;46.13;;;23.40;;
25327;SDS011;13279;51.300;12.394;2024-03-06T09:28:25;44.03;;;23.73;;
25327;SDS011;13279;51.300;12.394;2024-03-06T09:30:53;47.20;;;24.10;;
25327;SDS011;13279;51.300;12.394;2024-03-06T09:33:22;50.97;;;24.10;;
25327;SDS011;13279;51.300;12.394;2024-03-06T09:35:49;57.30;;;26.07;;
25327;SDS011;13279;51.300;12.394;2024-03-06T09:38:17;51.37;;;23.77;;
25327;SDS011;13279;51.300;12.394;2024-03-06T09:40:44;50.17;;;24.07;;
25327;SDS011;13279;51.300;12.394;2024-03-06T09:43:12;46.93;;;24.80;;
25327;SDS011;13279;51.300;12.394;2024-03-06T09:45:39;51.23;;;25.67;;
25327;SDS011;13279;51.300;12.394;2024-03-06T09:48:07;51.53;;;23.70;;
25327;SDS011;13279;51.300;12.394;2024-03-06T09:50:37;44.13;;;23.07;;
25327;SDS011;13279;51.300;12.394;2024-03-06T09:53:10;54.60;;;24.13;;
25327;SDS011;13279;51.300;12.394;2024-03-06T09:55:41;42.60;;;22.17;;
25327;SDS011;13279;51.300;12.394;2024-03-06T09:58:10;49.03;;;23.37;;
25327;SDS011;13279;51.300;12.394;2024-03-06T10:00:38;44.70;;;23.43;;
25327;SDS011;13279;51.300;12.394;2024-03-06T10:03:05;49.17;;;25.43;;
25327;SDS011;13279;51.300;12.394;2024-03-06T10:05:34;46.17;;;22.90;;
25327;SDS011;13279;51.300;12.394;2024-03-06T10:08:03;47.90;;;24.63;;
25327;SDS011;13279;51.300;12.394;2024-03-06T10:10:31;47.00;;;23.23;;
25327;SDS011;13279;51.300;12.394;2024-03-06T10:12:59;53.97;;;25.27;;
25327;SDS011;13279;51.300;12.394;2024-03-06T10:15:26;43.30;;;24.17;;
25327;SDS011;13279;51.300;12.394;2024-03-06T10:20:37;49.17;;;24.90;;
25327;SDS011;13279;51.300;12.394;2024-03-06T10:23:06;48.10;;;24.40;;
25327;SDS011;13279;51.300;12.394;2024-03-06T10:25:34;47.93;;;24.87;;
25327;SDS011;13279;51.300;12.394;2024-03-06T10:28:05;50.07;;;24.27;;
25327;SDS011;13279;51.300;12.394;2024-03-06T10:30:34;49.00;;;23.40;;
25327;SDS011;13279;51.300;12.394;2024-03-06T10:33:02;43.13;;;23.23;;
25327;SDS011;13279;51.300;12.394;2024-03-06T10:35:31;47.33;;;24.17;;
25327;SDS011;13279;51.300;12.394;2024-03-06T10:37:59;45.77;;;23.03;;
25327;SDS011;13279;51.300;12.394;2024-03-06T10:40:29;46.27;;;24.30;;
25327;SDS011;13279;51.300;12.394;2024-03-06T10:42:58;52.43;;;25.23;;
25327;SDS011;13279;51.300;12.394;2024-03-06T10:45:40;51.53;;;24.50;;
25327;SDS011;13279;51.300;12.394;2024-03-06T10:48:13;46.17;;;23.47;;
25327;SDS011;13279;51.300;12.394;2024-03-06T10:50:41;45.23;;;22.47;;
25327;SDS011;13279;51.300;12.394;2024-03-06T10:53:10;48.07;;;22.63;;
25327;SDS011;13279;51.300;12.394;2024-03-06T10:55:40;48.07;;;24.93;;
25327;SDS011;13279;51.300;12.394;2024-03-06T10:58:11;49.43;;;24.00;;
25327;SDS011;13279;51.300;12.394;2024-03-06T11:00:39;42.80;;;22.13;;
25327;SDS011;13279;51.300;12.394;2024-03-06T11:03:08;47.97;;;22.50;;
25327;SDS011;13279;51.300;12.394;2024-03-06T11:05:37;48.40;;;25.20;;
25327;SDS011;13279;51.300;12.394;2024-03-06T11:08:07;54.17;;;24.73;;
25327;SDS011;13279;51.300;12.394;2024-03-06T11:10:36;45.27;;;22.17;;
25327;SDS011;13279;51.300;12.394;2024-03-06T11:13:10;46.90;;;23.73;;
25327;SDS011;13279;51.300;12.394;2024-03-06T11:15:48;47.13;;;22.33;;
25327;SDS011;13279;51.300;12.394;2024-03-06T11:21:28;42.93;;;22.23;;
25327;SDS011;13279;51.300;12.394;2024-03-06T11:24:12;43.30;;;21.07;;
25327;SDS011;13279;51.300;12.394;2024-03-06T11:26:42;47.20;;;21.77;;
25327;SDS011;13279;51.300;12.394;2024-03-06T11:29:11;49.67;;;22.33;;
25327;SDS011;13279;51.300;12.394;2024-03-06T11:31:39;41.80;;;21.20;;
25327;SDS011;13279;51.300;12.394;2024-03-06T11:34:22;43.20;;;22.20;;
25327;SDS011;13279;51.300;12.394;2024-03-06T11:36:53;43.13;;;20.17;;
25327;SDS011;13279;51.300;12.394;2024-03-06T11:39:20;42.43;;;21.17;;
25327;SDS011;13279;51.300;12.394;2024-03-06T11:41:48;42.97;;;21.87;;
25327;SDS011;13279;51.300;12.394;2024-03-06T11:44:18;36.50;;;19.57;;
25327;SDS011;13279;51.300;12.394;2024-03-06T11:46:49;34.43;;;19.47;;
25327;SDS011;13279;51.300;12.394;2024-03-06T11:49:24;36.87;;;18.97;;
25327;SDS011;13279;51.300;12.394;2024-03-06T11:51:55;32.30;;;17.67;;
25327;SDS011;13279;51.300;12.394;2024-03-06T11:54:23;26.80;;;13.13;;
25327;SDS011;13279;51.300;12.394;2024-03-06T11:56:52;25.97;;;13.77;;
25327;SDS011;13279;51.300;12.394;2024-03-06T11:59:22;34.90;;;15.93;;
25327;SDS011;13279;51.300;12.394;2024-03-06T12:01:51;34.57;;;17.90;;
25327;SDS011;13279;51.300;12.394;2024-03-06T12:04:18;32.17;;;18.57;;
25327;SDS011;13279;51.300;12.394;2024-03-06T12:06:48;35.50;;;19.17;;
25327;SDS011;13279;51.300;12.394;2024-03-06T12:09:15;34.80;;;18.90;;
25327;SDS011;13279;51.300;12.394;2024-03-06T12:11:43;36.40;;;19.80;;
25327;SDS011;13279;51.300;12.394;2024-03-06T12:14:14;38.80;;;19.03;;
25327;SDS011;13279;51.300;12.394;2024-03-06T12:16:53;36.07;;;18.97;;
25327;SDS011;13279;51.300;12.394;2024-03-06T12:19:22;41.47;;;20.00;;
25327;SDS011;13279;51.300;12.394;2024-03-06T12:21:49;37.40;;;18.80;;
25327;SDS011;13279;51.300;12.394;2024-03-06T12:24:19;36.63;;;20.17;;
25327;SDS011;13279;51.300;12.394;2024-03-06T12:26:46;39.07;;;19.17;;
25327;SDS011;13279;51.300;12.394;2024-03-06T12:29:27;31.87;;;18.87;;
25327;SDS011;13279;51.300;12.394;2024-03-06T12:31:58;33.83;;;18.53;;
25327;SDS011;13279;51.300;12.394;2024-03-06T12:34:25;33.80;;;17.07;;
25327;SDS011;13279;51.300;12.394;2024-03-06T12:36:52;33.87;;;17.03;;
25327;SDS011;13279;51.300;12.394;2024-03-06T12:39:20;37.27;;;18.77;;
25327;SDS011;13279;51.300;12.394;2024-03-06T12:41:49;34.03;;;16.60;;
25327;SDS011;13279;51.300;12.394;2024-03-06T12:44:16;28.67;;;17.63;;
25327;SDS011;13279;51.300;12.394;2024-03-06T12:46:46;34.37;;;19.10;;
25327;SDS011;13279;51.300;12.394;2024-03-06T12:49:15;33.97;;;20.07;;
25327;SDS011;13279;51.300;12.394;2024-03-06T12:51:44;37.07;;;18.47;;
25327;SDS011;13279;51.300;12.394;2024-03-06T12:54:11;35.10;;;19.63;;
25327;SDS011;13279;51.300;12.394;2024-03-06T12:56:39;38.07;;;18.47;;
25327;SDS011;13279;51.300;12.394;2024-03-06T12:59:06;29.47;;;18.43;;
25327;SDS011;13279;51.300;12.394;2024-03-06T13:01:34;34.47;;;18.47;;
25327;SDS011;13279;51.300;12.394;2024-03-06T13:04:01;33.30;;;18.20;;
25327;SDS011;13279;51.300;12.394;2024-03-06T13:06:30;36.67;;;20.27;;
25327;SDS011;13279;51.300;12.394;2024-03-06T13:08:58;28.90;;;18.57;;
25327;SDS011;13279;51.300;12.394;2024-03-06T13:11:26;38.33;;;19.00;;
25327;SDS011;13279;51.300;12.394;2024-03-06T13:13:53;30.10;;;16.80;;
25327;SDS011;13279;51.300;12.394;2024-03-06T13:16:20;28.30;;;16.83;;
25327;SDS011;13279;51.300;12.394;2024-03-06T13:18:48;37.93;;;19.00;;
25327;SDS011;13279;51.300;12.394;2024-03-06T13:21:18;32.80;;;17.00;;
25327;SDS011;13279;51.300;12.394;2024-03-06T13:23:47;34.60;;;18.03;;
25327;SDS011;13279;51.300;12.394;2024-03-06T13:26:15;36.20;;;17.00;;
25327;SDS011;13279;51.300;12.394;2024-03-06T13:28:43;31.03;;;17.63;;
25327;SDS011;13279;51.300;12.394;2024-03-06T13:31:11;32.00;;;16.77;;
25327;SDS011;13279;51.300;12.394;2024-03-06T13:33:39;35.50;;;17.50;;
25327;SDS011;13279;51.300;12.394;2024-03-06T13:36:06;29.13;;;16.77;;
25327;SDS011;13279;51.300;12.394;2024-03-06T13:38:34;36.67;;;17.57;;
25327;SDS011;13279;51.300;12.394;2024-03-06T13:41:03;32.50;;;17.13;;
25327;SDS011;13279;51.300;12.394;2024-03-06T13:43:31;33.20;;;16.00;;
25327;SDS011;13279;51.300;12.394;2024-03-06T13:45:58;30.47;;;16.43;;
25327;SDS011;13279;51.300;12.394;2024-03-06T13:48:26;28.10;;;15.10;;
25327;SDS011;13279;51.300;12.394;2024-03-06T13:50:53;35.07;;;17.17;;
25327;SDS011;13279;51.300;12.394;2024-03-06T13:53:21;31.93;;;17.50;;
25327;SDS011;13279;51.300;12.394;2024-03-06T13:55:48;30.87;;;16.00;;
25327;SDS011;13279;51.300;12.394;2024-03-06T13:58:16;24.73;;;14.53;;
25327;SDS011;13279;51.300;12.394;2024-03-06T14:00:44;23.23;;;14.73;;
25327;SDS011;13279;51.300;12.394;2024-03-06T14:03:11;26.83;;;15.97;;
25327;SDS011;13279;51.300;12.394;2024-03-06T14:05:42;28.63;;;15.83;;
25327;SDS011;13279;51.300;12.394;2024-03-06T14:08:09;34.47;;;16.23;;
25327;SDS011;13279;51.300;12.394;2024-03-06T14:10:38;25.67;;;15.80;;
25327;SDS011;13279;51.300;12.394;2024-03-06T14:13:06;27.87;;;15.07;;
25327;SDS011;13279;51.300;12.394;2024-03-06T14:15:35;27.77;;;15.83;;
25327;SDS011;13279;51.300;12.394;2024-03-06T14:18:03;25.73;;;14.50;;
25327;SDS011;13279;51.300;12.394;2024-03-06T14:20:31;25.50;;;13.70;;